createdAt,value
2018-09-22T00:01:15.148Z,1.30
2018-09-22T00:03:43.791Z,1.40
2018-09-22T00:06:12.329Z,1.97
2018-09-22T00:08:43.090Z,1.43
2018-09-22T00:11:11.489Z,2.03
2018-09-22T00:13:40.563Z,1.70
2018-09-22T00:16:08.977Z,1.47
2018-09-22T00:18:37.326Z,1.60
2018-09-22T00:21:06.198Z,1.43
2018-09-22T00:23:34.663Z,1.60
2018-09-22T00:26:03.065Z,1.77
2018-09-22T00:28:31.434Z,1.70
2018-09-22T00:30:59.835Z,1.47
2018-09-22T00:33:28.243Z,1.70
2018-09-22T00:35:56.594Z,1.60
2018-09-22T00:38:25.118Z,1.50
2018-09-22T00:40:53.558Z,1.33
2018-09-22T00:43:21.998Z,1.80
2018-09-22T00:45:50.377Z,1.90
2018-09-22T00:48:18.814Z,1.70
2018-09-22T00:50:47.219Z,1.70
2018-09-22T00:53:15.734Z,1.80
2018-09-22T00:55:44.337Z,2.20
2018-09-22T00:58:12.742Z,1.80
2018-09-22T01:00:41.185Z,2.10
2018-09-22T01:03:09.644Z,1.97
2018-09-22T01:05:38.015Z,1.73
2018-09-22T01:08:06.442Z,1.50
2018-09-22T01:10:34.853Z,1.70
2018-09-22T01:13:03.222Z,1.60
2018-09-22T01:15:31.634Z,1.63
2018-09-22T01:17:59.937Z,1.43
2018-09-22T01:20:28.478Z,1.40
2018-09-22T01:22:56.819Z,1.80
2018-09-22T01:25:25.202Z,1.83
2018-09-22T01:27:53.562Z,1.70
2018-09-22T01:30:22.102Z,2.03
2018-09-22T01:32:50.580Z,1.47
2018-09-22T01:35:19.121Z,1.30
2018-09-22T01:37:47.489Z,1.90
2018-09-22T01:40:15.905Z,1.80
2018-09-22T01:42:44.330Z,1.90
2018-09-22T01:45:12.921Z,2.23
2018-09-22T01:47:41.320Z,1.47
2018-09-22T01:50:09.817Z,1.40
2018-09-22T01:52:38.204Z,1.50
2018-09-22T01:55:06.637Z,1.30
2018-09-22T01:57:34.996Z,1.60
2018-09-22T02:00:03.450Z,1.33
2018-09-22T02:02:31.888Z,1.80
2018-09-22T02:05:00.231Z,1.27
2018-09-22T02:07:28.797Z,1.60
2018-09-22T02:09:57.144Z,1.10
2018-09-22T02:12:25.569Z,1.80
2018-09-22T02:14:53.912Z,1.50
2018-09-22T02:17:22.416Z,1.37
2018-09-22T02:19:50.890Z,1.37
2018-09-22T02:22:19.586Z,1.60
2018-09-22T02:24:47.964Z,1.40
2018-09-22T02:27:16.430Z,1.37
2018-09-22T02:29:44.912Z,1.50
2018-09-22T02:32:13.296Z,1.50
2018-09-22T02:34:41.851Z,1.50
2018-09-22T02:37:10.227Z,1.53
2018-09-22T02:39:38.580Z,1.47
2018-09-22T02:42:07.118Z,1.50
2018-09-22T02:44:35.589Z,1.30
2018-09-22T02:47:04.205Z,1.70
2018-09-22T02:49:32.634Z,1.90
2018-09-22T02:52:00.934Z,1.60
2018-09-22T02:54:29.414Z,1.30
2018-09-22T02:56:57.794Z,1.60
2018-09-22T02:59:26.154Z,1.40
2018-09-22T03:01:54.513Z,1.43
2018-09-22T03:04:23.030Z,1.40
2018-09-22T03:06:51.471Z,1.47
2018-09-22T03:09:19.892Z,1.50
2018-09-22T03:11:48.371Z,1.47
2018-09-22T03:14:16.765Z,1.30
2018-09-22T03:16:45.195Z,1.43
2018-09-22T03:19:14.632Z,1.30
2018-09-22T03:21:43.030Z,1.37
2018-09-22T03:24:11.491Z,1.47
2018-09-22T03:26:39.956Z,1.30
2018-09-22T03:29:08.394Z,1.57
2018-09-22T03:31:36.802Z,1.70
2018-09-22T03:34:05.292Z,1.97
2018-09-22T03:36:33.657Z,1.70
2018-09-22T03:39:02.053Z,2.00
2018-09-22T03:41:30.525Z,1.50
2018-09-22T03:43:58.917Z,1.87
2018-09-22T03:46:27.390Z,1.83
2018-09-22T03:48:55.846Z,1.60
2018-09-22T03:51:24.230Z,1.97
2018-09-22T03:53:52.585Z,2.77
2018-09-22T03:56:21.137Z,1.53
2018-09-22T03:58:49.594Z,1.80
2018-09-22T04:01:18.095Z,1.57
2018-09-22T04:03:46.447Z,1.57
2018-09-22T04:06:14.826Z,1.47
2018-09-22T04:08:43.234Z,1.70
2018-09-22T04:11:11.599Z,1.67
2018-09-22T04:13:40.055Z,1.60
2018-09-22T04:16:08.522Z,1.17
2018-09-22T04:18:36.889Z,1.80
2018-09-22T04:21:05.407Z,1.50
2018-09-22T04:23:34.057Z,1.83
2018-09-22T04:26:02.423Z,2.20
2018-09-22T04:28:30.775Z,2.10
2018-09-22T04:30:59.115Z,1.90
2018-09-22T04:33:28.254Z,1.53
2018-09-22T04:35:56.561Z,2.23
2018-09-22T04:38:24.960Z,2.00
2018-09-22T04:40:53.319Z,1.80
2018-09-22T04:43:21.703Z,1.77
2018-09-22T04:45:50.315Z,1.77
2018-09-22T04:48:18.701Z,1.80
2018-09-22T04:50:47.263Z,1.60
2018-09-22T04:53:15.726Z,1.80
2018-09-22T04:55:44.071Z,1.60
2018-09-22T04:58:12.458Z,1.87
2018-09-22T05:00:40.804Z,1.73
2018-09-22T05:03:09.205Z,1.60
2018-09-22T05:05:37.561Z,1.60
2018-09-22T05:08:06.202Z,1.70
2018-09-22T05:10:34.702Z,2.13
2018-09-22T05:13:03.108Z,1.97
2018-09-22T05:15:31.603Z,2.23
2018-09-22T05:17:59.947Z,1.80
2018-09-22T05:20:28.346Z,1.67
2018-09-22T05:22:56.697Z,1.97
2018-09-22T05:25:25.345Z,2.07
2018-09-22T05:27:53.723Z,1.57
2018-09-22T05:30:22.145Z,1.90
2018-09-22T05:32:50.574Z,2.20
2018-09-22T05:35:19.118Z,1.70
2018-09-22T05:37:47.445Z,2.07
2018-09-22T05:40:15.833Z,1.83
2018-09-22T05:42:44.226Z,2.17
2018-09-22T05:45:12.627Z,1.77
2018-09-22T05:47:41.110Z,2.20
2018-09-22T05:50:09.517Z,2.37
2018-09-22T05:52:38.072Z,2.30
2018-09-22T05:55:06.523Z,2.23
2018-09-22T05:57:35.005Z,2.00
2018-09-22T06:00:03.586Z,2.33
2018-09-22T06:02:32.052Z,2.23
2018-09-22T06:05:00.447Z,2.37
2018-09-22T06:07:28.965Z,2.60
2018-09-22T06:09:57.369Z,2.30
2018-09-22T06:12:25.755Z,2.67
2018-09-22T06:14:54.118Z,2.77
2018-09-22T06:17:22.545Z,2.30
2018-09-22T06:19:50.922Z,2.40
2018-09-22T06:22:19.402Z,2.90
2018-09-22T06:24:48.485Z,3.07
2018-09-22T06:27:17.777Z,2.83
2018-09-22T06:29:46.921Z,2.50
2018-09-22T06:32:15.401Z,3.00
2018-09-22T06:34:43.857Z,2.43
2018-09-22T06:37:12.242Z,2.60
2018-09-22T06:39:40.714Z,2.17
2018-09-22T06:42:09.257Z,3.10
2018-09-22T06:44:37.603Z,2.70
2018-09-22T06:47:06.032Z,2.37
2018-09-22T06:49:34.678Z,2.07
2018-09-22T06:52:03.151Z,3.00
2018-09-22T06:54:31.709Z,2.00
2018-09-22T06:57:00.124Z,1.70
2018-09-22T06:59:28.531Z,2.67
2018-09-22T07:01:56.997Z,2.07
2018-09-22T07:04:25.440Z,1.40
2018-09-22T07:06:53.894Z,1.50
2018-09-22T07:09:22.293Z,2.20
2018-09-22T07:11:50.754Z,2.33
2018-09-22T07:14:19.256Z,1.80
2018-09-22T07:16:47.764Z,1.83
2018-09-22T07:19:16.285Z,2.00
2018-09-22T07:21:50.066Z,1.80
2018-09-22T07:24:18.575Z,2.47
2018-09-22T07:26:47.193Z,1.97
2018-09-22T07:29:15.718Z,1.97
2018-09-22T07:31:44.126Z,1.80
2018-09-22T07:34:12.510Z,1.87
2018-09-22T07:36:40.938Z,2.30
2018-09-22T07:39:10.318Z,2.30
2018-09-22T07:41:38.814Z,1.50
2018-09-22T07:44:07.284Z,3.30
2018-09-22T07:46:35.698Z,1.63
2018-09-22T07:49:04.295Z,1.83
2018-09-22T07:51:33.303Z,1.90
2018-09-22T07:54:01.783Z,1.70
2018-09-22T07:56:30.279Z,2.00
2018-09-22T07:58:58.643Z,2.40
2018-09-22T08:01:27.126Z,1.83
2018-09-22T08:03:55.663Z,2.33
2018-09-22T08:06:24.181Z,1.80
2018-09-22T08:08:52.882Z,2.03
2018-09-22T08:11:21.669Z,2.30
2018-09-22T08:13:50.118Z,2.17
2018-09-22T08:16:18.612Z,1.90
2018-09-22T08:18:47.062Z,2.30
2018-09-22T08:21:15.447Z,2.27
2018-09-22T08:23:44.054Z,2.10
2018-09-22T08:26:12.473Z,1.75
2018-09-22T08:28:41.011Z,1.95
2018-09-22T08:31:09.498Z,1.72
2018-09-22T08:33:37.904Z,2.10
2018-09-22T08:36:06.534Z,1.90
2018-09-22T08:38:35.056Z,1.90
2018-09-22T08:41:03.470Z,1.82
2018-09-22T08:43:32.004Z,2.10
2018-09-22T08:46:00.372Z,1.85
2018-09-22T08:48:28.805Z,1.70
2018-09-22T08:50:57.325Z,1.87
2018-09-22T08:53:25.817Z,1.70
2018-09-22T08:55:54.299Z,1.82
2018-09-22T08:58:22.811Z,1.70
2018-09-22T09:00:51.275Z,1.52
2018-09-22T09:03:19.729Z,2.02
2018-09-22T09:05:48.263Z,1.72
2018-09-22T09:08:16.726Z,1.75
2018-09-22T09:10:45.134Z,2.00
2018-09-22T09:13:13.779Z,2.10
2018-09-22T09:15:42.166Z,1.60
2018-09-22T09:18:11.354Z,2.20
2018-09-22T09:20:39.851Z,1.92
2018-09-22T09:23:08.511Z,1.93
2018-09-22T09:25:37.070Z,1.27
2018-09-22T09:28:05.642Z,1.37
2018-09-22T09:30:34.214Z,1.83
2018-09-22T09:33:02.589Z,1.83
2018-09-22T09:35:31.263Z,1.60
2018-09-22T09:37:59.715Z,1.50
2018-09-22T09:40:28.212Z,2.20
2018-09-22T09:42:56.633Z,1.90
2018-09-22T09:45:25.158Z,1.60
2018-09-22T09:47:53.561Z,1.40
2018-09-22T09:50:22.153Z,1.47
2018-09-22T09:52:51.036Z,1.70
2018-09-22T09:55:19.563Z,1.97
2018-09-22T09:57:48.134Z,1.37
2018-09-22T10:00:19.573Z,1.30
2018-09-22T10:02:48.109Z,1.70
2018-09-22T10:05:16.666Z,1.40
2018-09-22T10:07:45.127Z,1.70
2018-09-22T10:10:13.575Z,1.20
2018-09-22T10:12:42.065Z,1.37
2018-09-22T10:15:10.573Z,1.70
2018-09-22T10:17:39.634Z,1.73
2018-09-22T10:20:08.146Z,2.17
2018-09-22T10:22:36.587Z,2.30
2018-09-22T10:25:05.092Z,1.83
2018-09-22T10:27:33.522Z,1.60
2018-09-22T10:30:02.027Z,2.30
2018-09-22T10:32:30.450Z,1.60
2018-09-22T10:34:58.892Z,1.50
2018-09-22T10:37:27.418Z,1.60
2018-09-22T10:39:55.900Z,1.37
2018-09-22T10:42:24.295Z,1.50
2018-09-22T10:44:52.701Z,1.90
2018-09-22T10:47:21.291Z,1.60
2018-09-22T10:49:49.940Z,1.60
2018-09-22T10:52:18.468Z,1.40
2018-09-22T10:54:46.881Z,1.33
2018-09-22T10:57:15.255Z,1.90
2018-09-22T10:59:43.622Z,1.83
2018-09-22T11:02:12.025Z,1.13
2018-09-22T11:04:40.491Z,1.70
2018-09-22T11:07:08.976Z,1.40
2018-09-22T11:09:37.452Z,1.67
2018-09-22T11:12:05.939Z,1.10
2018-09-22T11:14:34.468Z,1.63
2018-09-22T11:17:03.002Z,1.70
2018-09-22T11:19:31.461Z,1.50
2018-09-22T11:21:59.838Z,1.37
2018-09-22T11:24:28.453Z,1.50
2018-09-22T11:26:56.964Z,1.52
2018-09-22T11:29:25.427Z,1.70
2018-09-22T11:31:53.865Z,2.00
2018-09-22T11:34:22.278Z,1.50
2018-09-22T11:36:50.805Z,1.60
2018-09-22T11:39:19.295Z,1.40
2018-09-22T11:41:47.798Z,1.80
2018-09-22T11:44:16.152Z,1.50
2018-09-22T11:46:44.543Z,1.90
2018-09-22T11:49:12.919Z,1.37
2018-09-22T11:51:41.625Z,1.40
2018-09-22T11:54:09.992Z,1.67
2018-09-22T11:56:38.556Z,1.20
2018-09-22T11:59:07.061Z,1.70
2018-09-22T12:01:36.303Z,1.23
2018-09-22T12:04:04.859Z,1.30
2018-09-22T12:06:33.363Z,1.53
2018-09-22T12:09:01.811Z,1.63
2018-09-22T12:11:30.201Z,1.47
2018-09-22T12:13:58.798Z,1.43
2018-09-22T12:16:27.158Z,1.37
2018-09-22T12:18:55.714Z,1.30
2018-09-22T12:21:24.425Z,1.00
2018-09-22T12:23:53.002Z,1.10
2018-09-22T12:26:21.632Z,1.20
2018-09-22T12:28:50.153Z,1.23
2018-09-22T12:31:18.583Z,1.40
2018-09-22T12:33:47.340Z,1.37
2018-09-22T12:36:16.864Z,1.47
2018-09-22T12:38:45.401Z,1.30
2018-09-22T12:41:13.775Z,1.23
2018-09-22T12:43:42.176Z,1.47
2018-09-22T12:46:10.754Z,1.80
2018-09-22T12:48:39.221Z,0.97
2018-09-22T12:51:07.629Z,1.67
2018-09-22T12:53:36.275Z,2.20
2018-09-22T12:56:04.643Z,1.23
2018-09-22T12:58:33.120Z,1.40
2018-09-22T13:01:01.668Z,1.13
2018-09-22T13:03:30.712Z,1.03
2018-09-22T13:05:59.285Z,1.37
2018-09-22T13:08:27.870Z,1.10
2018-09-22T13:10:56.358Z,1.60
2018-09-22T13:13:24.830Z,1.60
2018-09-22T13:15:53.459Z,1.20
2018-09-22T13:18:22.024Z,1.30
2018-09-22T13:20:50.582Z,1.70
2018-09-22T13:23:18.984Z,1.13
2018-09-22T13:25:47.426Z,1.20
2018-09-22T13:28:15.823Z,1.33
2018-09-22T13:30:44.223Z,1.00
2018-09-22T13:33:12.673Z,1.50
2018-09-22T13:35:41.037Z,1.10
2018-09-22T13:38:09.522Z,1.17
2018-09-22T13:40:37.994Z,1.50
2018-09-22T13:43:06.526Z,2.00
2018-09-22T13:45:34.937Z,1.27
2018-09-22T13:48:03.362Z,1.67
2018-09-22T13:50:31.975Z,1.07
2018-09-22T13:53:00.383Z,1.40
2018-09-22T13:55:28.789Z,1.20
2018-09-22T13:57:57.186Z,1.10
2018-09-22T14:00:25.576Z,1.00
2018-09-22T14:02:53.967Z,1.30
2018-09-22T14:05:22.497Z,1.20
2018-09-22T14:07:50.999Z,1.10
2018-09-22T14:10:19.626Z,1.20
2018-09-22T14:12:47.911Z,1.40
2018-09-22T14:15:17.125Z,1.10
2018-09-22T14:17:45.719Z,1.67
2018-09-22T14:20:14.182Z,1.10
2018-09-22T14:22:42.779Z,1.27
2018-09-22T14:25:11.278Z,1.30
2018-09-22T14:27:39.813Z,1.40
2018-09-22T14:30:08.211Z,1.37
2018-09-22T14:32:36.636Z,1.17
2018-09-22T14:35:05.172Z,1.10
2018-09-22T14:37:33.538Z,1.23
2018-09-22T14:40:02.040Z,1.10
2018-09-22T14:42:30.459Z,1.00
2018-09-22T14:44:58.877Z,1.40
2018-09-22T14:47:27.293Z,1.47
2018-09-22T14:49:55.661Z,1.50
2018-09-22T14:52:24.099Z,1.50
2018-09-22T14:54:52.644Z,1.30
2018-09-22T14:57:21.273Z,1.00
2018-09-22T14:59:49.744Z,1.00
2018-09-22T15:02:18.229Z,1.17
2018-09-22T15:04:46.707Z,1.33
2018-09-22T15:07:15.332Z,1.00
2018-09-22T15:09:43.819Z,1.10
2018-09-22T15:12:12.417Z,1.57
2018-09-22T15:14:40.894Z,2.40
2018-09-22T15:17:09.331Z,1.70
2018-09-22T15:19:38.080Z,1.40
2018-09-22T15:22:06.974Z,1.67
2018-09-22T15:24:35.436Z,1.63
2018-09-22T15:27:03.953Z,1.30
2018-09-22T15:29:32.512Z,1.57
2018-09-22T15:32:00.915Z,1.40
2018-09-22T15:34:29.355Z,1.40
2018-09-22T15:36:57.859Z,3.00
2018-09-22T15:39:26.227Z,2.70
2018-09-22T15:41:54.707Z,2.50
2018-09-22T15:44:23.200Z,2.23
2018-09-22T15:46:51.771Z,2.37
2018-09-22T15:49:20.165Z,2.43
2018-09-22T15:51:48.557Z,2.13
2018-09-22T15:54:16.997Z,1.67
2018-09-22T15:56:45.385Z,1.73
2018-09-22T15:59:13.817Z,1.87
2018-09-22T16:01:42.289Z,1.70
2018-09-22T16:04:10.733Z,1.50
2018-09-22T16:06:39.262Z,1.40
2018-09-22T16:09:08.915Z,1.43
2018-09-22T16:11:37.469Z,1.60
2018-09-22T16:14:06.062Z,1.50
2018-09-22T16:16:34.609Z,1.50
2018-09-22T16:19:04.117Z,1.30
2018-09-22T16:21:32.755Z,2.20
2018-09-22T16:24:01.327Z,1.90
2018-09-22T16:26:29.778Z,2.07
2018-09-22T16:28:58.192Z,1.97
2018-09-22T16:31:26.658Z,2.10
2018-09-22T16:33:55.119Z,1.90
2018-09-22T16:36:23.540Z,1.43
2018-09-22T16:38:52.447Z,1.40
2018-09-22T16:41:21.035Z,1.80
2018-09-22T16:43:49.601Z,1.50
2018-09-22T16:46:18.052Z,2.00
2018-09-22T16:48:46.452Z,1.73
2018-09-22T16:51:15.111Z,1.33
2018-09-22T16:53:43.503Z,2.17
2018-09-22T16:56:12.013Z,1.47
2018-09-22T16:58:40.505Z,1.70
2018-09-22T17:01:09.011Z,2.00
2018-09-22T17:03:37.422Z,1.50
2018-09-22T17:06:05.873Z,1.30
2018-09-22T17:08:34.230Z,1.90
2018-09-22T17:11:02.678Z,2.03
2018-09-22T17:13:31.135Z,1.63
2018-09-22T17:15:59.609Z,1.57
2018-09-22T17:18:28.093Z,1.67
2018-09-22T17:20:56.681Z,1.40
2018-09-22T17:23:25.095Z,1.70
2018-09-22T17:25:53.804Z,1.40
2018-09-22T17:28:22.249Z,1.83
2018-09-22T17:30:50.955Z,2.77
2018-09-22T17:33:19.386Z,1.53
2018-09-22T17:35:48.040Z,1.37
2018-09-22T17:38:16.522Z,1.90
2018-09-22T17:40:45.012Z,1.90
2018-09-22T17:43:13.503Z,1.77
2018-09-22T17:45:41.950Z,1.40
2018-09-22T17:48:10.421Z,1.70
2018-09-22T17:50:39.024Z,1.67
2018-09-22T17:53:07.466Z,1.87
2018-09-22T17:55:35.975Z,1.93
2018-09-22T17:58:05.019Z,1.40
2018-09-22T18:00:33.410Z,1.50
2018-09-22T18:03:01.819Z,1.97
2018-09-22T18:05:30.396Z,1.47
2018-09-22T18:07:59.014Z,2.23
2018-09-22T18:10:27.541Z,2.20
2018-09-22T18:12:56.121Z,1.70
2018-09-22T18:15:24.500Z,1.67
2018-09-22T18:17:54.557Z,1.80
2018-09-22T18:20:22.938Z,1.53
2018-09-22T18:22:52.157Z,1.60
2018-09-22T18:25:20.631Z,1.83
2018-09-22T18:27:49.009Z,2.03
2018-09-22T18:30:17.421Z,1.70
2018-09-22T18:32:45.837Z,1.77
2018-09-22T18:35:14.279Z,1.37
2018-09-22T18:37:42.758Z,2.23
2018-09-22T18:40:11.868Z,1.50
2018-09-22T18:42:40.340Z,2.03
2018-09-22T18:45:08.835Z,2.17
2018-09-22T18:47:37.347Z,4.70
2018-09-22T18:50:05.810Z,4.70
2018-09-22T18:52:34.313Z,4.70
2018-09-22T18:55:02.917Z,4.33
2018-09-22T18:57:31.359Z,4.63
2018-09-22T18:59:59.859Z,4.70
2018-09-22T19:02:29.351Z,4.40
2018-09-22T19:04:57.797Z,4.80
2018-09-22T19:07:26.226Z,4.40
2018-09-22T19:09:54.691Z,4.70
2018-09-22T19:12:23.398Z,5.30
2018-09-22T19:14:56.536Z,4.00
2018-09-22T19:17:28.696Z,4.10
2018-09-22T19:20:03.749Z,3.90
2018-09-22T19:22:38.257Z,4.10
2018-09-22T19:25:09.570Z,3.37
2018-09-22T19:27:43.432Z,3.90
2018-09-22T19:30:16.055Z,3.77
2018-09-22T19:32:50.796Z,2.80
2018-09-22T19:35:26.024Z,2.30
2018-09-22T19:38:01.080Z,2.50
2018-09-22T19:40:36.415Z,2.73
2018-09-22T19:43:12.912Z,2.30
2018-09-22T19:45:59.674Z,2.90
2018-09-22T19:48:46.345Z,2.23
2018-09-22T19:51:17.063Z,2.50
2018-09-22T19:53:46.375Z,1.80
2018-09-22T19:56:14.850Z,2.27
2018-09-22T19:58:43.347Z,2.40
2018-09-22T20:01:11.748Z,3.20
2018-09-22T20:03:40.165Z,4.47
2018-09-22T20:06:08.558Z,3.70
2018-09-22T20:08:36.956Z,2.47
2018-09-22T20:11:05.720Z,2.00
2018-09-22T20:13:34.276Z,2.07
2018-09-22T20:16:02.678Z,2.00
2018-09-22T20:18:31.252Z,1.70
2018-09-22T20:20:59.681Z,2.43
2018-09-22T20:23:28.102Z,2.30
2018-09-22T20:25:56.670Z,1.57
2018-09-22T20:28:25.204Z,1.63
2018-09-22T20:30:53.788Z,2.53
2018-09-22T20:33:22.504Z,3.57
2018-09-22T20:35:50.950Z,3.67
2018-09-22T20:38:19.341Z,4.57
2018-09-22T20:40:47.847Z,4.23
2018-09-22T20:43:16.248Z,4.30
2018-09-22T20:45:44.670Z,3.87
2018-09-22T20:48:13.146Z,3.50
2018-09-22T20:50:41.607Z,2.30
2018-09-22T20:53:10.791Z,3.20
2018-09-22T20:55:39.391Z,2.90
2018-09-22T20:58:07.866Z,2.30
2018-09-22T21:00:36.458Z,2.43
2018-09-22T21:03:05.001Z,3.13
2018-09-22T21:05:33.465Z,2.60
2018-09-22T21:08:01.825Z,2.80
2018-09-22T21:10:30.282Z,3.00
2018-09-22T21:12:58.857Z,2.27
2018-09-22T21:15:27.286Z,2.13
2018-09-22T21:17:55.650Z,2.63
2018-09-22T21:20:24.195Z,2.47
2018-09-22T21:22:52.594Z,3.40
2018-09-22T21:25:21.028Z,2.53
2018-09-22T21:27:49.543Z,2.87
2018-09-22T21:30:17.969Z,2.77
2018-09-22T21:32:46.378Z,3.20
2018-09-22T21:35:14.824Z,2.83
2018-09-22T21:37:43.229Z,2.80
2018-09-22T21:40:11.707Z,2.73
2018-09-22T21:42:40.197Z,2.50
2018-09-22T21:45:08.651Z,3.30
2018-09-22T21:47:37.070Z,2.93
2018-09-22T21:50:05.563Z,2.80
2018-09-22T21:52:33.917Z,2.80
2018-09-22T21:55:02.409Z,3.83
2018-09-22T21:57:30.791Z,3.30
2018-09-22T21:59:59.192Z,3.00
2018-09-22T22:02:27.677Z,3.70
2018-09-22T22:04:56.249Z,3.50
2018-09-22T22:07:24.949Z,3.57
2018-09-22T22:09:53.476Z,3.50
2018-09-22T22:12:22.065Z,3.77
2018-09-22T22:14:50.538Z,4.73
2018-09-22T22:17:18.979Z,3.50
2018-09-22T22:19:47.404Z,3.83
2018-09-22T22:22:16.014Z,4.00
2018-09-22T22:24:44.391Z,3.33
2018-09-22T22:27:12.965Z,3.40
2018-09-22T22:29:41.370Z,3.27
2018-09-22T22:32:09.748Z,4.10
2018-09-22T22:34:38.139Z,3.30
2018-09-22T22:37:06.699Z,3.10
2018-09-22T22:39:35.201Z,3.57
2018-09-22T22:42:03.642Z,2.70
2018-09-22T22:44:32.008Z,2.50
2018-09-22T22:47:00.416Z,2.70
2018-09-22T22:49:28.862Z,2.20
2018-09-22T22:51:57.249Z,2.53
2018-09-22T22:54:25.734Z,2.30
2018-09-22T22:56:54.160Z,2.50
2018-09-22T22:59:22.694Z,2.47
2018-09-22T23:01:51.162Z,2.30
2018-09-22T23:04:19.630Z,2.03
2018-09-22T23:06:48.048Z,2.50
2018-09-22T23:09:16.430Z,2.00
2018-09-22T23:11:45.010Z,2.30
2018-09-22T23:14:13.710Z,2.60
2018-09-22T23:16:42.138Z,2.70
2018-09-22T23:19:10.633Z,2.67
2018-09-22T23:21:39.159Z,2.43
2018-09-22T23:24:07.774Z,1.70
2018-09-22T23:26:36.190Z,1.97
2018-09-22T23:29:04.698Z,2.03
2018-09-22T23:31:33.074Z,1.70
2018-09-22T23:34:01.651Z,2.20
2018-09-22T23:36:30.038Z,2.07
2018-09-22T23:38:58.585Z,2.13
2018-09-22T23:41:26.954Z,1.37
2018-09-22T23:43:55.312Z,1.60
2018-09-22T23:46:24.229Z,2.10
2018-09-22T23:48:52.723Z,1.97
2018-09-22T23:51:21.119Z,1.70
2018-09-22T23:53:49.636Z,1.80
2018-09-22T23:56:18.138Z,1.70
2018-09-22T23:58:46.474Z,1.40
